AUA805 LOWW-LGAV
Flight info
| Callsign | AUA805 |
|---|---|
| Flight time | N/A |
| Altitude | 35000 |
| Route | ARSIN DCT NALOX DCT BABIT DCT NEVAK DCT RAXAD DCT MAKED UL617 SKP UM749 ROPOX |
| Aircraft | A320/M-SDE3FGHIRWY/LB1 |
Departure
| Time | 2026-05-06 19:30 |
|---|---|
| Airport | Vienna International Airport (LOWW) |
Arrival
| Time | N/A |
|---|---|
| Airport | Athens Eleftherios Venizelos International Airport (LGAV) |
| Time | Latitude | Longitude | Altitude | Speed | Heading |
|---|---|---|---|---|---|
| 2026-05-06 18:06 | 48.11729 | 16.56738 | 635 ft | 0 kts | 25° |
| 2026-05-06 18:54 | 48.11725 | 16.56735 | 610 ft | 3 kts | 25° |
| 2026-05-06 18:54 | 48.11701 | 16.56718 | 613 ft | 4 kts | 22° |
| 2026-05-06 18:54 | 48.11676 | 16.56705 | 618 ft | 4 kts | 11° |
| 2026-05-06 18:55 | 48.11652 | 16.56704 | 623 ft | 4 kts | 323° |
| 2026-05-06 18:55 | 48.11646 | 16.56712 | 619 ft | 0 kts | 296° |
| 2026-05-06 18:58 | 48.11655 | 16.56685 | 622 ft | 7 kts | 296° |
| 2026-05-06 18:59 | 48.11673 | 16.56630 | 618 ft | 5 kts | 296° |
| 2026-05-06 18:59 | 48.11686 | 16.56590 | 619 ft | 4 kts | 296° |
| 2026-05-06 18:59 | 48.11694 | 16.56564 | 613 ft | 3 kts | 296° |
| 2026-05-06 18:59 | 48.11717 | 16.56493 | 622 ft | 11 kts | 296° |
| 2026-05-06 19:00 | 48.11749 | 16.56395 | 610 ft | 11 kts | 296° |
| 2026-05-06 19:00 | 48.11735 | 16.56300 | 623 ft | 12 kts | 208° |
| 2026-05-06 19:00 | 48.11660 | 16.56244 | 622 ft | 13 kts | 211° |
| 2026-05-06 19:00 | 48.11635 | 16.56215 | 614 ft | 0 kts | 219° |
| 2026-05-06 19:01 | 48.11630 | 16.56209 | 624 ft | 4 kts | 218° |
| 2026-05-06 19:01 | 48.11589 | 16.56159 | 621 ft | 10 kts | 241° |
| 2026-05-06 19:02 | 48.11607 | 16.56052 | 619 ft | 8 kts | 296° |
| 2026-05-06 19:02 | 48.11631 | 16.55981 | 619 ft | 7 kts | 296° |
| 2026-05-06 19:02 | 48.11649 | 16.55925 | 622 ft | 5 kts | 296° |
| 2026-05-06 19:02 | 48.11672 | 16.55853 | 612 ft | 12 kts | 296° |
| 2026-05-06 19:03 | 48.11709 | 16.55742 | 616 ft | 11 kts | 296° |
| 2026-05-06 19:03 | 48.11740 | 16.55643 | 614 ft | 10 kts | 296° |
| 2026-05-06 19:03 | 48.11773 | 16.55544 | 618 ft | 10 kts | 296° |
| 2026-05-06 19:03 | 48.11806 | 16.55442 | 617 ft | 13 kts | 296° |
| 2026-05-06 19:04 | 48.11848 | 16.55314 | 617 ft | 13 kts | 296° |
| 2026-05-06 19:04 | 48.11885 | 16.55199 | 615 ft | 11 kts | 296° |
| 2026-05-06 19:04 | 48.11918 | 16.55097 | 616 ft | 13 kts | 296° |
| 2026-05-06 19:04 | 48.11965 | 16.54952 | 616 ft | 15 kts | 296° |
| 2026-05-06 19:05 | 48.12014 | 16.54803 | 618 ft | 17 kts | 296° |
| 2026-05-06 19:05 | 48.12064 | 16.54648 | 616 ft | 18 kts | 296° |
| 2026-05-06 19:05 | 48.12116 | 16.54489 | 613 ft | 16 kts | 296° |
| 2026-05-06 19:05 | 48.12165 | 16.54341 | 617 ft | 15 kts | 296° |
| 2026-05-06 19:06 | 48.12207 | 16.54209 | 622 ft | 13 kts | 296° |
| 2026-05-06 19:06 | 48.12250 | 16.54080 | 619 ft | 16 kts | 296° |
| 2026-05-06 19:06 | 48.12294 | 16.53942 | 615 ft | 14 kts | 296° |
| 2026-05-06 19:06 | 48.12330 | 16.53833 | 623 ft | 9 kts | 296° |
| 2026-05-06 19:07 | 48.12341 | 16.53797 | 623 ft | 0 kts | 296° |
| 2026-05-06 19:07 | 48.12342 | 16.53796 | 623 ft | 1 kts | 296° |
| 2026-05-06 19:07 | 48.12350 | 16.53772 | 610 ft | 3 kts | 296° |
| 2026-05-06 19:08 | 48.12356 | 16.53751 | 615 ft | 1 kts | 296° |
| 2026-05-06 19:08 | 48.12360 | 16.53741 | 610 ft | 2 kts | 296° |
| 2026-05-06 19:08 | 48.12378 | 16.53685 | 612 ft | 7 kts | 296° |
| 2026-05-06 19:08 | 48.12391 | 16.53644 | 610 ft | 0 kts | 296° |
| 2026-05-06 19:12 | 48.12404 | 16.53604 | 617 ft | 5 kts | 296° |
| 2026-05-06 19:13 | 48.12417 | 16.53565 | 615 ft | 3 kts | 296° |
| 2026-05-06 19:13 | 48.12433 | 16.53516 | 610 ft | 6 kts | 294° |
| 2026-05-06 19:13 | 48.12434 | 16.53504 | 613 ft | 0 kts | 278° |
| 2026-05-06 19:22 | 48.12434 | 16.53503 | 613 ft | 1 kts | 278° |
| 2026-05-06 19:23 | 48.12420 | 16.53457 | 617 ft | 6 kts | 226° |
| 2026-05-06 19:23 | 48.12396 | 16.53437 | 613 ft | 0 kts | 205° |
| 2026-05-06 19:26 | 48.12390 | 16.53433 | 620 ft | 4 kts | 205° |
| 2026-05-06 19:26 | 48.12348 | 16.53404 | 610 ft | 8 kts | 205° |
| 2026-05-06 19:26 | 48.12296 | 16.53367 | 621 ft | 9 kts | 201° |
| 2026-05-06 19:27 | 48.12258 | 16.53412 | 615 ft | 0 kts | 116° |
| 2026-05-06 19:29 | 48.12256 | 16.53417 | 614 ft | 4 kts | 116° |
| 2026-05-06 19:29 | 48.12162 | 16.53701 | 621 ft | 65 kts | 116° |
| 2026-05-06 19:29 | 48.11875 | 16.54591 | 617 ft | 123 kts | 116° |
| 2026-05-06 19:29 | 48.11435 | 16.55957 | 654 ft | 164 kts | 123° |
| 2026-05-06 19:30 | 48.10954 | 16.57468 | 1287 ft | 161 kts | 123° |
| 2026-05-06 19:30 | 48.10453 | 16.58978 | 1855 ft | 167 kts | 127° |
| 2026-05-06 19:30 | 48.09878 | 16.60637 | 2077 ft | 192 kts | 127° |
| 2026-05-06 19:30 | 48.09238 | 16.62511 | 2406 ft | 209 kts | 127° |
| 2026-05-06 19:31 | 48.08575 | 16.64493 | 2885 ft | 218 kts | 126° |
| 2026-05-06 19:31 | 48.07893 | 16.66562 | 3462 ft | 224 kts | 126° |
| 2026-05-06 19:31 | 48.05862 | 16.69884 | 4692 ft | 214 kts | 159° |
| 2026-05-06 19:32 | 48.04489 | 16.70674 | 5308 ft | 210 kts | 175° |
| 2026-05-06 19:32 | 48.02991 | 16.70897 | 5643 ft | 227 kts | 181° |
| 2026-05-06 19:32 | 48.01328 | 16.71057 | 6018 ft | 249 kts | 181° |
| 2026-05-06 19:32 | 47.99570 | 16.71224 | 6674 ft | 256 kts | 181° |
| 2026-05-06 19:33 | 47.97773 | 16.71396 | 7428 ft | 260 kts | 181° |
| 2026-05-06 19:33 | 47.95976 | 16.71568 | 8149 ft | 265 kts | 181° |
| 2026-05-06 19:33 | 47.94109 | 16.71748 | 8615 ft | 271 kts | 180° |
| 2026-05-06 19:33 | 47.92235 | 16.71934 | 8870 ft | 270 kts | 180° |
| 2026-05-06 19:34 | 47.90355 | 16.72120 | 8987 ft | 270 kts | 180° |
| 2026-05-06 19:34 | 47.88476 | 16.72306 | 9013 ft | 271 kts | 180° |
| 2026-05-06 19:34 | 47.86597 | 16.72489 | 9016 ft | 270 kts | 180° |
| 2026-05-06 19:34 | 47.84721 | 16.72672 | 9020 ft | 270 kts | 181° |
| 2026-05-06 19:35 | 47.83463 | 16.72795 | 9018 ft | 268 kts | 181° |
| 2026-05-06 19:35 | 47.81588 | 16.72977 | 9503 ft | 270 kts | 180° |
| 2026-05-06 19:35 | 47.79702 | 16.73156 | 10221 ft | 275 kts | 180° |
| 2026-05-06 19:35 | 47.77714 | 16.73339 | 10446 ft | 298 kts | 180° |
| 2026-05-06 19:36 | 47.75566 | 16.73534 | 10609 ft | 321 kts | 180° |
| 2026-05-06 19:36 | 47.73262 | 16.73746 | 10852 ft | 339 kts | 180° |
| 2026-05-06 19:36 | 47.70887 | 16.73975 | 11421 ft | 345 kts | 179° |
| 2026-05-06 19:36 | 47.68475 | 16.74211 | 12076 ft | 349 kts | 179° |
| 2026-05-06 19:37 | 47.66070 | 16.74449 | 12751 ft | 352 kts | 179° |
| 2026-05-06 19:37 | 47.63612 | 16.74690 | 13414 ft | 354 kts | 179° |
| 2026-05-06 19:37 | 47.61122 | 16.74934 | 13985 ft | 359 kts | 179° |
| 2026-05-06 19:37 | 47.58622 | 16.75177 | 14590 ft | 361 kts | 179° |
| 2026-05-06 19:38 | 47.56104 | 16.75420 | 15144 ft | 364 kts | 179° |
| 2026-05-06 19:38 | 47.53579 | 16.75664 | 15725 ft | 367 kts | 179° |
| 2026-05-06 19:38 | 47.51018 | 16.75913 | 16224 ft | 372 kts | 179° |
| 2026-05-06 19:38 | 47.48415 | 16.76161 | 16818 ft | 374 kts | 179° |
| 2026-05-06 19:39 | 47.45799 | 16.76410 | 17338 ft | 378 kts | 179° |
| 2026-05-06 19:39 | 47.43183 | 16.76654 | 17827 ft | 383 kts | 179° |
| 2026-05-06 19:39 | 47.40498 | 16.76908 | 18349 ft | 386 kts | 179° |
| 2026-05-06 19:39 | 47.37802 | 16.77164 | 18780 ft | 391 kts | 179° |
| 2026-05-06 19:40 | 47.35064 | 16.77426 | 19245 ft | 394 kts | 179° |
| 2026-05-06 19:40 | 47.32354 | 16.77686 | 19733 ft | 396 kts | 179° |
| 2026-05-06 19:40 | 47.29584 | 16.77954 | 20213 ft | 398 kts | 179° |
| 2026-05-06 19:40 | 47.26802 | 16.78221 | 20649 ft | 401 kts | 179° |
| 2026-05-06 19:41 | 47.23999 | 16.78494 | 21102 ft | 403 kts | 179° |
| 2026-05-06 19:41 | 47.21224 | 16.78759 | 21545 ft | 405 kts | 179° |
| 2026-05-06 19:41 | 47.18392 | 16.79022 | 21986 ft | 407 kts | 179° |
| 2026-05-06 19:41 | 47.15559 | 16.79293 | 22456 ft | 407 kts | 179° |
| 2026-05-06 19:42 | 47.12723 | 16.79570 | 22796 ft | 409 kts | 179° |
| 2026-05-06 19:42 | 47.09907 | 16.79843 | 22859 ft | 409 kts | 179° |
| 2026-05-06 19:42 | 47.07061 | 16.80113 | 22857 ft | 409 kts | 179° |
| 2026-05-06 19:42 | 47.04205 | 16.80379 | 22866 ft | 408 kts | 179° |
| 2026-05-06 19:43 | 47.01394 | 16.80638 | 22872 ft | 408 kts | 179° |
| 2026-05-06 19:43 | 46.98557 | 16.80901 | 22871 ft | 408 kts | 179° |
| 2026-05-06 19:43 | 46.95711 | 16.81166 | 22874 ft | 407 kts | 179° |
| 2026-05-06 19:43 | 46.92885 | 16.81506 | 22873 ft | 408 kts | 174° |
| 2026-05-06 19:44 | 46.90148 | 16.82531 | 22874 ft | 413 kts | 162° |
| 2026-05-06 19:44 | 46.87557 | 16.84406 | 22879 ft | 418 kts | 151° |
| 2026-05-06 19:44 | 46.85261 | 16.87053 | 22884 ft | 424 kts | 139° |
| 2026-05-06 19:44 | 46.83363 | 16.90399 | 22902 ft | 431 kts | 127° |
| 2026-05-06 19:45 | 46.81755 | 16.94111 | 22892 ft | 432 kts | 126° |
| 2026-05-06 19:45 | 46.80155 | 16.97835 | 22912 ft | 434 kts | 126° |
| 2026-05-06 19:45 | 46.78557 | 17.01558 | 22915 ft | 434 kts | 126° |
| 2026-05-06 19:45 | 46.76946 | 17.05295 | 22918 ft | 434 kts | 126° |
| 2026-05-06 19:46 | 46.75354 | 17.08988 | 22919 ft | 434 kts | 126° |
| 2026-05-06 19:46 | 46.73750 | 17.12699 | 22922 ft | 434 kts | 126° |
| 2026-05-06 19:46 | 46.72134 | 17.16424 | 22921 ft | 434 kts | 126° |
| 2026-05-06 19:46 | 46.70522 | 17.20138 | 22918 ft | 434 kts | 126° |
| 2026-05-06 19:47 | 46.68911 | 17.23853 | 22923 ft | 434 kts | 126° |
| 2026-05-06 19:47 | 46.67296 | 17.27578 | 22896 ft | 434 kts | 126° |
| 2026-05-06 19:47 | 46.65670 | 17.31320 | 22924 ft | 437 kts | 126° |
| 2026-05-06 19:47 | 46.64063 | 17.35010 | 22909 ft | 438 kts | 126° |
| 2026-05-06 19:48 | 46.62431 | 17.38750 | 22917 ft | 438 kts | 126° |
| 2026-05-06 19:48 | 46.60775 | 17.42537 | 22908 ft | 438 kts | 126° |
| 2026-05-06 19:48 | 46.59157 | 17.46229 | 22915 ft | 438 kts | 126° |
| 2026-05-06 19:48 | 46.57519 | 17.49959 | 22908 ft | 438 kts | 126° |
| 2026-05-06 19:49 | 46.55877 | 17.53696 | 22921 ft | 438 kts | 126° |
| 2026-05-06 19:49 | 46.54230 | 17.57438 | 22909 ft | 438 kts | 126° |
| 2026-05-06 19:49 | 46.52589 | 17.61159 | 22896 ft | 437 kts | 126° |
| 2026-05-06 19:49 | 46.50966 | 17.64837 | 22915 ft | 437 kts | 126° |
| 2026-05-06 19:50 | 46.49324 | 17.68565 | 22917 ft | 437 kts | 126° |
| 2026-05-06 19:50 | 46.47684 | 17.72286 | 22918 ft | 437 kts | 126° |
| 2026-05-06 19:50 | 46.46033 | 17.76017 | 23106 ft | 440 kts | 126° |
| 2026-05-06 19:50 | 46.44366 | 17.79771 | 23509 ft | 442 kts | 126° |
| 2026-05-06 19:51 | 46.42713 | 17.83488 | 23823 ft | 445 kts | 126° |
| 2026-05-06 19:51 | 46.41025 | 17.87281 | 24139 ft | 447 kts | 126° |
| 2026-05-06 19:51 | 46.39334 | 17.91084 | 24446 ft | 449 kts | 126° |
| 2026-05-06 19:51 | 46.37653 | 17.94863 | 24733 ft | 451 kts | 126° |
| 2026-05-06 19:52 | 46.35937 | 17.98718 | 24972 ft | 455 kts | 126° |
| 2026-05-06 19:52 | 46.34227 | 18.02543 | 25240 ft | 458 kts | 126° |
| 2026-05-06 19:52 | 46.32491 | 18.06417 | 25522 ft | 460 kts | 126° |
| 2026-05-06 19:52 | 46.30741 | 18.10313 | 25801 ft | 462 kts | 126° |
| 2026-05-06 19:53 | 46.28987 | 18.14218 | 26085 ft | 464 kts | 126° |
| 2026-05-06 19:53 | 46.27225 | 18.18140 | 26356 ft | 466 kts | 126° |
| 2026-05-06 19:53 | 46.25453 | 18.22085 | 26616 ft | 468 kts | 126° |
| 2026-05-06 19:53 | 46.23672 | 18.26046 | 26861 ft | 470 kts | 126° |
| 2026-05-06 19:54 | 46.21881 | 18.30020 | 27108 ft | 472 kts | 126° |
| 2026-05-06 19:54 | 46.20106 | 18.33942 | 27348 ft | 474 kts | 126° |
| 2026-05-06 19:54 | 46.18291 | 18.37947 | 27593 ft | 475 kts | 126° |
| 2026-05-06 19:54 | 46.16478 | 18.41945 | 27817 ft | 477 kts | 126° |
| 2026-05-06 19:55 | 46.14657 | 18.45961 | 28035 ft | 479 kts | 126° |
| 2026-05-06 19:55 | 46.12829 | 18.49989 | 28255 ft | 480 kts | 126° |
| 2026-05-06 19:55 | 46.10999 | 18.54014 | 28563 ft | 480 kts | 126° |
| 2026-05-06 19:55 | 46.09165 | 18.58039 | 28848 ft | 479 kts | 126° |
| 2026-05-06 19:56 | 46.07340 | 18.62041 | 29153 ft | 479 kts | 126° |
| 2026-05-06 19:56 | 46.05524 | 18.66017 | 29454 ft | 478 kts | 126° |
| 2026-05-06 19:56 | 46.03687 | 18.70029 | 29736 ft | 478 kts | 126° |
| 2026-05-06 19:56 | 46.01846 | 18.74035 | 29984 ft | 479 kts | 127° |
| 2026-05-06 19:57 | 46.00023 | 18.77994 | 30235 ft | 479 kts | 127° |
| 2026-05-06 19:57 | 45.98185 | 18.81984 | 30480 ft | 478 kts | 126° |
| 2026-05-06 19:57 | 45.96343 | 18.85987 | 30757 ft | 477 kts | 126° |
| 2026-05-06 19:57 | 45.94466 | 18.89883 | 31010 ft | 474 kts | 131° |
| 2026-05-06 19:58 | 45.92269 | 18.93369 | 31315 ft | 468 kts | 140° |
| 2026-05-06 19:58 | 45.89780 | 18.96322 | 31601 ft | 463 kts | 148° |
| 2026-05-06 19:58 | 45.87157 | 18.98951 | 31876 ft | 461 kts | 148° |
| 2026-05-06 19:58 | 45.84498 | 19.01615 | 32148 ft | 461 kts | 148° |
| 2026-05-06 19:59 | 45.81880 | 19.04244 | 32415 ft | 460 kts | 148° |
| 2026-05-06 19:59 | 45.79287 | 19.06855 | 32674 ft | 459 kts | 148° |
| 2026-05-06 19:59 | 45.76679 | 19.09480 | 32934 ft | 459 kts | 148° |
| 2026-05-06 19:59 | 45.74043 | 19.12132 | 33150 ft | 460 kts | 148° |
| 2026-05-06 20:00 | 45.71423 | 19.14762 | 33375 ft | 460 kts | 149° |
| 2026-05-06 20:00 | 45.68819 | 19.17370 | 33601 ft | 460 kts | 148° |
| 2026-05-06 20:00 | 45.66205 | 19.19980 | 33860 ft | 459 kts | 149° |
| 2026-05-06 20:00 | 45.63598 | 19.22576 | 34091 ft | 458 kts | 149° |
| 2026-05-06 20:01 | 45.60982 | 19.25177 | 34312 ft | 458 kts | 149° |
| 2026-05-06 20:01 | 45.58368 | 19.27773 | 34533 ft | 457 kts | 149° |
| 2026-05-06 20:01 | 45.55730 | 19.30399 | 34748 ft | 457 kts | 149° |
| 2026-05-06 20:01 | 45.53140 | 19.32976 | 34893 ft | 457 kts | 149° |
| 2026-05-06 20:02 | 45.47908 | 19.38162 | 34922 ft | 462 kts | 149° |
| 2026-05-06 20:02 | 45.42617 | 19.43382 | 34922 ft | 463 kts | 149° |
| 2026-05-06 20:03 | 45.37312 | 19.48616 | 34923 ft | 464 kts | 149° |
| 2026-05-06 20:03 | 45.32003 | 19.53848 | 34919 ft | 464 kts | 149° |
| 2026-05-06 20:04 | 45.26717 | 19.59049 | 34920 ft | 464 kts | 150° |
| 2026-05-06 20:04 | 45.21408 | 19.64256 | 34886 ft | 465 kts | 150° |
| 2026-05-06 20:05 | 45.16051 | 19.69497 | 34893 ft | 467 kts | 150° |
| 2026-05-06 20:05 | 45.10717 | 19.74704 | 34894 ft | 467 kts | 150° |
| 2026-05-06 20:06 | 45.05353 | 19.79920 | 34896 ft | 468 kts | 150° |
| 2026-05-06 20:06 | 44.99996 | 19.85119 | 34900 ft | 468 kts | 150° |
| 2026-05-06 20:07 | 44.94596 | 19.90348 | 34893 ft | 469 kts | 151° |
| 2026-05-06 20:07 | 44.89233 | 19.95529 | 34897 ft | 469 kts | 151° |
| 2026-05-06 20:08 | 44.83822 | 20.00746 | 34908 ft | 470 kts | 151° |
| 2026-05-06 20:08 | 44.78448 | 20.05917 | 34928 ft | 470 kts | 151° |
| 2026-05-06 20:09 | 44.73065 | 20.11082 | 34891 ft | 471 kts | 151° |
| 2026-05-06 20:09 | 44.67641 | 20.16281 | 34907 ft | 472 kts | 151° |
| 2026-05-06 20:10 | 44.62201 | 20.21479 | 34918 ft | 472 kts | 151° |
| 2026-05-06 20:10 | 44.56785 | 20.26646 | 34918 ft | 472 kts | 151° |
| 2026-05-06 20:11 | 44.51335 | 20.31831 | 34914 ft | 472 kts | 151° |
| 2026-05-06 20:11 | 44.45893 | 20.36991 | 34912 ft | 473 kts | 150° |
| 2026-05-06 20:12 | 44.40458 | 20.42121 | 34917 ft | 473 kts | 150° |
| 2026-05-06 20:12 | 44.34981 | 20.47292 | 34924 ft | 473 kts | 150° |
| 2026-05-06 20:13 | 44.29544 | 20.52419 | 34926 ft | 473 kts | 150° |
| 2026-05-06 20:13 | 44.24081 | 20.57555 | 34915 ft | 473 kts | 150° |
| 2026-05-06 20:14 | 44.18634 | 20.62641 | 34927 ft | 473 kts | 151° |
| 2026-05-06 20:14 | 44.13091 | 20.67596 | 34931 ft | 473 kts | 152° |
| 2026-05-06 20:15 | 44.07506 | 20.72496 | 34933 ft | 473 kts | 152° |
| 2026-05-06 20:15 | 44.01955 | 20.77398 | 34911 ft | 473 kts | 151° |
| 2026-05-06 20:16 | 43.96402 | 20.82323 | 34923 ft | 474 kts | 151° |
| 2026-05-06 20:16 | 43.90865 | 20.87236 | 34929 ft | 474 kts | 151° |
| 2026-05-06 20:17 | 43.85284 | 20.92169 | 34938 ft | 474 kts | 151° |
| 2026-05-06 20:17 | 43.79720 | 20.97060 | 34942 ft | 474 kts | 152° |
| 2026-05-06 20:18 | 43.74161 | 21.01940 | 34935 ft | 475 kts | 151° |
| 2026-05-06 20:18 | 43.68574 | 21.06843 | 34940 ft | 475 kts | 151° |
| 2026-05-06 20:19 | 43.62993 | 21.11732 | 34946 ft | 476 kts | 151° |
| 2026-05-06 20:19 | 43.57394 | 21.16619 | 34947 ft | 476 kts | 152° |
| 2026-05-06 20:20 | 43.51783 | 21.21499 | 34956 ft | 476 kts | 151° |
| 2026-05-06 20:20 | 43.46187 | 21.26354 | 34958 ft | 476 kts | 151° |
| 2026-05-06 20:21 | 43.40609 | 21.31187 | 34980 ft | 476 kts | 151° |
| 2026-05-06 20:21 | 43.34996 | 21.36053 | 34975 ft | 476 kts | 151° |
| 2026-05-06 20:22 | 43.29400 | 21.40888 | 34975 ft | 477 kts | 150° |
| 2026-05-06 20:22 | 43.24695 | 21.44943 | 34986 ft | 477 kts | 150° |
| 2026-05-06 20:23 | 43.19075 | 21.49773 | 34987 ft | 477 kts | 150° |
| 2026-05-06 20:23 | 43.13464 | 21.54590 | 35002 ft | 478 kts | 150° |
| 2026-05-06 20:24 | 43.07829 | 21.59416 | 34987 ft | 478 kts | 150° |
| 2026-05-06 20:24 | 43.02181 | 21.64238 | 34990 ft | 478 kts | 150° |
| 2026-05-06 20:25 | 42.96538 | 21.69045 | 34999 ft | 479 kts | 150° |
| 2026-05-06 20:25 | 42.90890 | 21.73847 | 35003 ft | 479 kts | 151° |
| 2026-05-06 20:26 | 42.85225 | 21.78656 | 35000 ft | 479 kts | 150° |
| 2026-05-06 20:26 | 42.79546 | 21.83465 | 35008 ft | 480 kts | 150° |
| 2026-05-06 20:27 | 42.73899 | 21.88233 | 35008 ft | 480 kts | 150° |
| 2026-05-06 20:27 | 42.68238 | 21.92991 | 35011 ft | 480 kts | 150° |
| 2026-05-06 20:28 | 42.62542 | 21.97783 | 35017 ft | 480 kts | 150° |
| 2026-05-06 20:28 | 42.56881 | 22.02541 | 35024 ft | 480 kts | 150° |
| 2026-05-06 20:29 | 42.51184 | 22.07312 | 35036 ft | 480 kts | 150° |
| 2026-05-06 20:29 | 42.45534 | 22.12033 | 35037 ft | 480 kts | 150° |
| 2026-05-06 20:30 | 42.36999 | 22.19155 | 35039 ft | 480 kts | 150° |
| 2026-05-06 20:31 | 42.31178 | 22.23493 | 35043 ft | 476 kts | 161° |
| 2026-05-06 20:31 | 42.24822 | 22.25694 | 35042 ft | 470 kts | 174° |
| 2026-05-06 20:32 | 42.18372 | 22.27200 | 35031 ft | 471 kts | 173° |
| 2026-05-06 20:32 | 42.11934 | 22.28730 | 35030 ft | 471 kts | 173° |
| 2026-05-06 20:33 | 42.05463 | 22.30255 | 35029 ft | 471 kts | 173° |
| 2026-05-06 20:33 | 41.98989 | 22.31767 | 35021 ft | 472 kts | 173° |
| 2026-05-06 20:34 | 41.92547 | 22.33275 | 35033 ft | 472 kts | 173° |
| 2026-05-06 20:34 | 41.86050 | 22.34794 | 35034 ft | 472 kts | 173° |
| 2026-05-06 20:35 | 41.79599 | 22.36295 | 35038 ft | 473 kts | 173° |
| 2026-05-06 20:35 | 41.73115 | 22.37807 | 35029 ft | 473 kts | 173° |
| 2026-05-06 20:36 | 41.66617 | 22.39309 | 35033 ft | 473 kts | 173° |
| 2026-05-06 20:36 | 41.60136 | 22.40813 | 35044 ft | 474 kts | 173° |
| 2026-05-06 20:37 | 41.53636 | 22.42319 | 35034 ft | 474 kts | 174° |
| 2026-05-06 20:37 | 41.47161 | 22.43815 | 35037 ft | 475 kts | 173° |
| 2026-05-06 20:38 | 41.40614 | 22.45325 | 35039 ft | 475 kts | 174° |
| 2026-05-06 20:38 | 41.34121 | 22.46821 | 35040 ft | 476 kts | 173° |
| 2026-05-06 20:39 | 41.27578 | 22.48320 | 35039 ft | 476 kts | 174° |
| 2026-05-06 20:39 | 41.21072 | 22.49806 | 35044 ft | 476 kts | 174° |
| 2026-05-06 20:40 | 41.14531 | 22.51417 | 35046 ft | 479 kts | 167° |
| 2026-05-06 20:40 | 41.08406 | 22.54870 | 35047 ft | 484 kts | 153° |
| 2026-05-06 20:41 | 41.02473 | 22.59131 | 35043 ft | 484 kts | 154° |
| 2026-05-06 20:41 | 40.96552 | 22.63327 | 35044 ft | 484 kts | 154° |
| 2026-05-06 20:42 | 40.90619 | 22.67515 | 35037 ft | 484 kts | 154° |
| 2026-05-06 20:42 | 40.84662 | 22.71731 | 35045 ft | 485 kts | 154° |
| 2026-05-06 20:43 | 40.78741 | 22.75912 | 35041 ft | 485 kts | 154° |
| 2026-05-06 20:43 | 40.72759 | 22.80118 | 35064 ft | 485 kts | 154° |
| 2026-05-06 20:44 | 40.66825 | 22.84296 | 35062 ft | 485 kts | 154° |
| 2026-05-06 20:44 | 40.60904 | 22.88458 | 35071 ft | 485 kts | 154° |
| 2026-05-06 20:45 | 40.54922 | 22.92648 | 35076 ft | 485 kts | 154° |
| 2026-05-06 20:45 | 40.48982 | 22.96795 | 35079 ft | 485 kts | 154° |
| 2026-05-06 20:46 | 40.42865 | 23.00512 | 35080 ft | 482 kts | 161° |
| 2026-05-06 20:46 | 40.36611 | 23.03621 | 35071 ft | 483 kts | 161° |
| 2026-05-06 20:47 | 40.30338 | 23.06744 | 35063 ft | 483 kts | 161° |
| 2026-05-06 20:47 | 40.24055 | 23.09876 | 35057 ft | 483 kts | 161° |
| 2026-05-06 20:48 | 40.17760 | 23.12989 | 35047 ft | 483 kts | 162° |
| 2026-05-06 20:48 | 40.11481 | 23.16091 | 35046 ft | 484 kts | 162° |
| 2026-05-06 20:49 | 40.05176 | 23.19198 | 35046 ft | 484 kts | 162° |
| 2026-05-06 20:49 | 39.98881 | 23.22302 | 35042 ft | 485 kts | 161° |
| 2026-05-06 20:50 | 39.92569 | 23.25412 | 35046 ft | 485 kts | 161° |
| 2026-05-06 20:50 | 39.86251 | 23.28513 | 35048 ft | 485 kts | 162° |
| 2026-05-06 20:51 | 39.79927 | 23.31598 | 35054 ft | 485 kts | 162° |
| 2026-05-06 20:51 | 39.73607 | 23.34681 | 35051 ft | 485 kts | 161° |
| 2026-05-06 20:52 | 39.67322 | 23.37754 | 35049 ft | 485 kts | 161° |
| 2026-05-06 20:52 | 39.60989 | 23.40843 | 35049 ft | 485 kts | 161° |
| 2026-05-06 20:53 | 39.54657 | 23.43920 | 35049 ft | 485 kts | 161° |
| 2026-05-06 20:53 | 39.48331 | 23.46981 | 35054 ft | 485 kts | 161° |
| 2026-05-06 20:54 | 39.42036 | 23.50022 | 35057 ft | 485 kts | 161° |
| 2026-05-06 20:54 | 39.35709 | 23.53083 | 35059 ft | 485 kts | 161° |
| 2026-05-06 20:55 | 39.29383 | 23.56144 | 35059 ft | 484 kts | 161° |
| 2026-05-06 20:55 | 39.23096 | 23.59177 | 35066 ft | 484 kts | 161° |
| 2026-05-06 20:56 | 39.16679 | 23.61739 | 35073 ft | 480 kts | 173° |
| 2026-05-06 20:56 | 39.10098 | 23.62764 | 35075 ft | 478 kts | 176° |
| 2026-05-06 20:57 | 39.03456 | 23.63747 | 35079 ft | 478 kts | 176° |
| 2026-05-06 20:57 | 38.96885 | 23.64722 | 35080 ft | 477 kts | 176° |
| 2026-05-06 20:58 | 38.90279 | 23.65695 | 35082 ft | 477 kts | 176° |
| 2026-05-06 20:58 | 38.83692 | 23.66677 | 35098 ft | 476 kts | 176° |
| 2026-05-06 20:59 | 38.77128 | 23.67640 | 35106 ft | 474 kts | 176° |
| 2026-05-06 20:59 | 38.70577 | 23.68592 | 35106 ft | 473 kts | 176° |
| 2026-05-06 21:00 | 38.64079 | 23.69541 | 35096 ft | 472 kts | 176° |
| 2026-05-06 21:00 | 38.57545 | 23.70498 | 35105 ft | 471 kts | 176° |
| 2026-05-06 21:01 | 38.51065 | 23.71442 | 35108 ft | 471 kts | 176° |
| 2026-05-06 21:01 | 38.44528 | 23.72396 | 35105 ft | 471 kts | 176° |
| 2026-05-06 21:02 | 38.38058 | 23.73348 | 35105 ft | 471 kts | 176° |
| 2026-05-06 21:02 | 38.31548 | 23.74288 | 35103 ft | 471 kts | 176° |
| 2026-05-06 21:03 | 38.25035 | 23.75208 | 35105 ft | 471 kts | 176° |
| 2026-05-06 21:03 | 38.18523 | 23.75474 | 35095 ft | 463 kts | 193° |
| 2026-05-06 21:03 | 38.15463 | 23.74481 | 35087 ft | 456 kts | 205° |
| 2026-05-06 21:04 | 38.12645 | 23.72731 | 35093 ft | 448 kts | 217° |
| 2026-05-06 21:04 | 38.07434 | 23.68348 | 35090 ft | 448 kts | 218° |
| 2026-05-06 21:05 | 38.02240 | 23.63990 | 35102 ft | 449 kts | 218° |
| 2026-05-06 21:05 | 37.97002 | 23.59605 | 32823 ft | 467 kts | 217° |
| 2026-05-06 21:05 | 37.94589 | 23.57621 | 23883 ft | 354 kts | 216° |